AirNav   Pilot Hours Calculator
 
 994 users online  

2E2 Sharpe's Strip Airport
Emmett, Michigan, USA

GOING TO EMMETT?


FAA INFORMATION EFFECTIVE 11 AUGUST 2022

Location

FAA Identifier: 2E2
Lat/Long: 42-57-05.7900N 082-46-33.1150W
42-57.096500N 082-46.551917W
42.9516083,-82.7758653
(estimated)
Elevation: 781 ft. / 238 m (estimated)
From city: 2 miles S of EMMETT, MI
Time zone: UTC -4 (UTC -5 during Standard Time)
Zip code: 48041

Airport Operations

Airport use: Open to the public
Activation date: 11/2003
Control tower: no
ARTCC: CLEVELAND CENTER
FSS: LANSING FLIGHT SERVICE STATION
NOTAMs facility: LAN (NOTAM-D service available)
Attendance: IREG
Wind indicator: yes
Segmented circle: no

Airport Communications

CTAF: 122.9
WX AWOS-3 at PHN (11 nm E): 118.375 (810-364-7787)

Nearby radio navigation aids

NDB name  Hdg/Dist  Freq  Var  ID
PHURN317/10.233207WPH .--. ....

Airport Services

Runway Information

Runway 18/36

Dimensions: 2700 x 90 ft. / 823 x 27 m
Surface: turf, in fair condition
Runway edge markings: RWY 36 & DSPLCD THLD MKD WITH 3 FT YELLOW CONES.
RUNWAY 18  RUNWAY 36
Latitude: 42-57.318500N42-56.874500N
Longitude: 082-46.564167W082-46.539667W
Elevation: 779.0 ft.780.0 ft.
Traffic pattern: leftleft
Runway heading: 178 true358 true
Displaced threshold: 700 ft.no
Obstructions: 27 ft. pline, marked, 100 ft. from runway, 23 ft. left of centerline, 3:1 slope to clear
APCH RATIO 0:1 TO DSPLCD THLD, +46 FT TREES 0 FT DSTC, 96 FT R.
28 ft. trees, 115 ft. right of centerline

Airport Ownership and Management from official FAA records

Ownership: Privately-owned
Owner: VERNON SHARPE
11371 HILL ROAD
RILEY, MI 48041
Phone 810-384-6668
Manager: VERNON SHARPE
11371 HILL ROAD
RILEY, MI 48041
Phone 810-384-6668

Airport Operational Statistics

Aircraft based on the field: 1
Single engine airplanes: 1
    
Aircraft operations: 100/year *
50% transient general aviation
50% local general aviation
* for 12-month period ending 31 December 2018

Additional Remarks

DEER & TURKEYS INVOF ARPT.
FOR IFR CLEARANCE CTC CLEVELAND ARTCC (ZOB) 126.52/285.52 OR CALL ZOB 440-774-0224.
CTC ARPT MGR FOR RWY CONDS WHEN SNOW COVERED 810-384-6668.

Instrument Procedures

There are no published instrument procedures at 2E2.

Some nearby airports with instrument procedures:

KPHN - St Clair County International Airport (11 nm E)
D98 - Romeo State Airport (13 nm SW)
57D - Ray Community Airport (14 nm S)
KMTC - Selfridge Air National Guard Base (20 nm S)
D95 - Dupont/Lapeer Airport (23 nm W)
 
Loc | Ops | Rwys | IFR | FBO | Links
Com | Nav | Svcs | Stats | Notes
Area around 2E2 (Sharpe's Strip Airport)
 
Road maps at: MapQuest Bing Google
 
Aerial photo
WARNING: Photo may not be current or correct
Aerial photo of 2E2 (Sharpe's Strip Airport)
Photo by Vic Adamko
Taken in the Summer of 2004

Do you have a better or more recent aerial photo of Sharpe's Strip Airport that you would like to share? If so, please send us your photo.

 
Sectional chart

 
Airport distance calculator
Flying to Sharpe's Strip Airport? Find the distance to fly.

From to 2E2

Sunrise and sunset
Times for 13-Aug-2022
 Local
(UTC-4)
 Zulu
(UTC)
Morning civil twilight06:0510:05
Sunrise06:3610:36
Sunset20:3600:36
Evening civil twilight21:0701:07

Current date and time
Zulu (UTC)  14-Aug-2022 00:23:25
Local (UTC-4)  13-Aug-2022 20:23:25
 
METAR
KPHN 
12nm E 
132355Z AUTO 00000KT 10SM OVC110 20/14 A3009 RMK AO2
KMTC 
20nm S 
132356Z 00000KT 10SM SCT070 OVC090 19/17 A3005 RMK AO2A SLP180 P0000 60000 T01930169 10230 20192 57010
CYZR 
21nm E 
132300Z AUTO 34004KT 9SM SCT060 OVC093 20/16 A3009 RMK SLP192 DENSITY ALT 1200FT
KD95 
23nm W 
132355Z AUTO 34004KT 10SM OVC085 18/12 A3011 RMK AO2 T01820118 10205 20182
TAF
KMTC 
20nm S 
131700Z 1317/1423 VRB06KT 9999 FEW150 SCT180 QNH3010INS BECMG 1321/1322 VRB06KT 8000 -SHRA BKN100 OVC140 QNH3005INS BECMG 1401/1402 VRB06KT 8000 -SHRA BKN065 OVC080 QNH3004INS BECMG 1407/1408 13006KT 9999 NSW BKN025 QNH2995INS TX23/1319Z TN15/1408Z
CYZR 
21nm E 
131940Z 1320/1402 22008KT P6SM SCT080 OVC110 TEMPO 1320/1402 P6SM -SHRA BKN060 OVC080 RMK FCST BASED ON AUTO OBS. NXT FCST BY 140800Z
NOTAMs
Click for the latest NOTAMs
NOTAMs are issued by the DoD/FAA and will open in a separate window not controlled by AirNav.

 

 
 

Would you like to see your business listed on this page?

 If your business provides an interesting product or service to pilots, flight crews, aircraft, or users of the Sharpe's Strip Airport, you should consider listing it here.  To start the listing process, click on the button below
 
Add a business
 

Other Pages about Sharpe's Strip Airport

Page from the Michigan Airport Directory (PDF)
 
Update a link
 
Copyright © AirNav, LLC. All rights reserved. Privacy Policy  Contact